createdAt,value
2018-12-16T00:00:41.984Z,88.15
2018-12-16T00:03:49.367Z,87.68
2018-12-16T00:06:56.681Z,87.59
2018-12-16T00:10:02.687Z,87.47
2018-12-16T00:13:10.879Z,87.63
2018-12-16T00:16:16.782Z,87.81
2018-12-16T00:19:22.695Z,86.86
2018-12-16T00:22:29.925Z,87.29
2018-12-16T00:25:36.663Z,87.75
2018-12-16T00:28:42.612Z,87.92
2018-12-16T00:31:48.965Z,87.09
2018-12-16T00:34:54.930Z,88.15
2018-12-16T00:38:00.840Z,86.05
2018-12-16T00:41:06.768Z,87.93
2018-12-16T00:44:13.077Z,87.31
2018-12-16T00:47:19.006Z,85.83
2018-12-16T00:50:24.895Z,87.75
2018-12-16T00:53:30.926Z,86.63
2018-12-16T00:56:38.334Z,86.47
2018-12-16T00:59:44.358Z,86.82
2018-12-16T01:02:49.985Z,87.02
2018-12-16T01:05:55.616Z,88.00
2018-12-16T01:09:01.223Z,86.85
2018-12-16T01:12:08.895Z,86.50
2018-12-16T01:15:14.903Z,86.76
2018-12-16T01:18:20.609Z,86.53
2018-12-16T01:21:26.920Z,86.91
2018-12-16T01:24:32.847Z,87.18
2018-12-16T01:27:38.737Z,86.06
2018-12-16T01:30:44.904Z,86.86
2018-12-16T01:33:50.806Z,85.69
2018-12-16T01:36:57.316Z,85.16
2018-12-16T01:40:03.452Z,85.49
2018-12-16T01:43:09.374Z,86.20
2018-12-16T01:46:15.592Z,86.06
2018-12-16T01:49:21.229Z,85.96
2018-12-16T01:52:27.306Z,86.08
2018-12-16T01:55:33.231Z,85.54
2018-12-16T01:58:39.255Z,85.18
2018-12-16T02:01:50.642Z,85.05
2018-12-16T02:04:56.407Z,85.57
2018-12-16T02:08:02.882Z,85.93
2018-12-16T02:11:08.800Z,85.78
2018-12-16T02:14:14.730Z,85.75
2018-12-16T02:17:20.603Z,85.83
2018-12-16T02:20:26.548Z,85.14
2018-12-16T02:23:32.146Z,86.16
2018-12-16T02:26:37.812Z,85.25
2018-12-16T02:29:43.741Z,84.83
2018-12-16T02:32:49.378Z,84.84
2018-12-16T02:35:55.184Z,85.33
2018-12-16T02:39:00.872Z,85.99
2018-12-16T02:42:07.544Z,84.97
2018-12-16T02:45:13.383Z,85.84
2018-12-16T02:48:19.660Z,85.82
2018-12-16T02:51:26.849Z,85.18
2018-12-16T02:54:34.225Z,84.98
2018-12-16T02:57:40.238Z,85.02
2018-12-16T03:00:46.445Z,84.45
2018-12-16T03:03:52.467Z,85.58
2018-12-16T03:06:58.337Z,85.06
2018-12-16T03:10:05.678Z,85.74
2018-12-16T03:13:11.951Z,84.99
2018-12-16T03:16:18.626Z,86.52
2018-12-16T03:19:24.274Z,85.77
2018-12-16T03:22:30.271Z,83.84
2018-12-16T03:25:36.505Z,84.14
2018-12-16T03:28:42.450Z,83.16
2018-12-16T03:31:48.221Z,83.83
2018-12-16T03:34:53.887Z,84.29
2018-12-16T03:37:59.514Z,84.49
2018-12-16T03:41:05.896Z,84.66
2018-12-16T03:44:11.770Z,84.77
2018-12-16T03:47:17.818Z,85.08
2018-12-16T03:50:23.768Z,85.26
2018-12-16T03:53:29.394Z,86.59
2018-12-16T03:56:34.969Z,85.42
2018-12-16T03:59:40.612Z,85.00
2018-12-16T04:02:46.706Z,85.86
2018-12-16T04:05:52.673Z,85.17
2018-12-16T04:08:58.601Z,84.91
2018-12-16T04:12:05.190Z,84.18
2018-12-16T04:15:11.972Z,83.63
2018-12-16T04:18:17.881Z,84.23
2018-12-16T04:21:23.757Z,84.22
2018-12-16T04:24:29.426Z,84.93
2018-12-16T04:27:35.316Z,85.02
2018-12-16T04:30:41.631Z,84.59
2018-12-16T04:33:47.891Z,84.59
2018-12-16T04:36:53.515Z,85.00
2018-12-16T04:39:59.126Z,85.05
2018-12-16T04:43:04.793Z,84.35
2018-12-16T04:46:10.663Z,84.79
2018-12-16T04:49:16.313Z,85.26
2018-12-16T04:52:22.177Z,84.76
2018-12-16T04:55:27.825Z,83.71
2018-12-16T04:58:33.865Z,84.33
2018-12-16T05:01:39.802Z,83.52
2018-12-16T05:04:46.041Z,83.83
2018-12-16T05:07:51.938Z,83.16
2018-12-16T05:10:57.846Z,83.39
2018-12-16T05:14:03.967Z,83.54
2018-12-16T05:17:09.564Z,83.32
2018-12-16T05:20:15.521Z,83.83
2018-12-16T05:23:21.107Z,84.09
2018-12-16T05:26:26.753Z,83.74
2018-12-16T05:29:32.696Z,84.03
2018-12-16T05:32:38.627Z,84.49
2018-12-16T05:35:44.783Z,84.20
2018-12-16T05:38:50.724Z,83.88
2018-12-16T05:41:56.583Z,84.52
2018-12-16T05:45:02.513Z,83.70
2018-12-16T05:48:08.757Z,83.21
2018-12-16T05:51:14.672Z,83.71
2018-12-16T05:54:20.606Z,83.16
2018-12-16T05:57:26.377Z,83.19
2018-12-16T06:00:32.434Z,83.57
2018-12-16T06:03:38.458Z,83.97
2018-12-16T06:06:44.159Z,84.04
2018-12-16T06:09:49.785Z,84.76
2018-12-16T06:12:55.657Z,84.08
2018-12-16T06:16:01.586Z,85.05
2018-12-16T06:19:07.292Z,84.16
2018-12-16T06:22:12.894Z,83.95
2018-12-16T06:25:18.514Z,84.46
2018-12-16T06:28:24.148Z,84.38
2018-12-16T06:31:29.756Z,83.42
2018-12-16T06:34:35.676Z,84.28
2018-12-16T06:37:41.574Z,83.98
2018-12-16T06:40:47.759Z,83.64
2018-12-16T06:43:53.659Z,83.43
2018-12-16T06:46:59.309Z,83.99
2018-12-16T06:50:06.955Z,84.21
2018-12-16T06:53:12.883Z,84.79
2018-12-16T06:56:19.113Z,84.04
2018-12-16T06:59:25.024Z,85.84
2018-12-16T07:02:30.979Z,86.42
2018-12-16T07:05:36.900Z,85.28
2018-12-16T07:08:43.048Z,84.18
2018-12-16T07:11:49.611Z,83.81
2018-12-16T07:14:55.656Z,84.70
2018-12-16T07:18:04.295Z,83.55
2018-12-16T07:21:12.018Z,83.87
2018-12-16T07:24:17.837Z,85.54
2018-12-16T07:27:24.085Z,84.59
2018-12-16T07:30:30.044Z,84.85
2018-12-16T07:33:35.942Z,85.04
2018-12-16T07:36:41.893Z,84.09
2018-12-16T07:39:47.855Z,85.21
2018-12-16T07:42:53.810Z,84.83
2018-12-16T07:45:59.875Z,84.59
2018-12-16T07:49:06.318Z,83.58
2018-12-16T07:52:11.959Z,84.46
2018-12-16T07:55:18.651Z,84.18
2018-12-16T07:58:25.045Z,83.89
2018-12-16T08:01:30.939Z,84.70
2018-12-16T08:04:36.829Z,83.70
2018-12-16T08:07:42.566Z,84.90
2018-12-16T08:10:49.168Z,84.60
2018-12-16T08:13:55.316Z,85.18
2018-12-16T08:19:06.848Z,84.62
2018-12-16T08:22:08.834Z,84.00
2018-12-16T08:25:14.917Z,84.45
2018-12-16T08:28:20.853Z,83.41
2018-12-16T08:31:26.900Z,84.13
2018-12-16T08:34:34.095Z,83.70
2018-12-16T08:37:40.245Z,82.92
2018-12-16T08:40:46.422Z,82.87
2018-12-16T08:43:52.373Z,82.89
2018-12-16T08:46:58.247Z,82.68
2018-12-16T08:50:05.621Z,81.66
2018-12-16T08:53:13.179Z,82.43
2018-12-16T08:56:19.218Z,80.96
2018-12-16T08:59:25.489Z,81.71
2018-12-16T09:02:31.450Z,80.47
2018-12-16T09:05:37.665Z,81.70
2018-12-16T09:08:44.379Z,81.44
2018-12-16T09:11:50.036Z,80.86
2018-12-16T09:14:55.676Z,79.33
2018-12-16T09:18:01.575Z,79.71
2018-12-16T09:21:07.417Z,79.85
2018-12-16T09:24:13.713Z,79.89
2018-12-16T09:27:19.344Z,80.89
2018-12-16T09:30:25.038Z,80.12
2018-12-16T09:33:30.724Z,79.54
2018-12-16T09:36:36.439Z,79.90
2018-12-16T09:39:42.080Z,79.40
2018-12-16T09:42:47.843Z,79.32
2018-12-16T09:45:53.530Z,79.04
2018-12-16T09:48:59.161Z,79.54
2018-12-16T09:52:05.632Z,79.28
2018-12-16T09:55:11.988Z,79.28
2018-12-16T09:58:17.976Z,79.39
2018-12-16T10:01:24.425Z,78.62
2018-12-16T10:04:30.771Z,78.11
2018-12-16T10:07:37.845Z,77.55
2018-12-16T10:10:43.642Z,77.95
2018-12-16T10:13:49.361Z,77.27
2018-12-16T10:16:55.015Z,78.06
2018-12-16T10:20:00.598Z,77.89
2018-12-16T10:23:06.468Z,78.13
2018-12-16T10:26:12.622Z,77.47
2018-12-16T10:29:18.627Z,76.70
2018-12-16T10:32:24.323Z,77.74
2018-12-16T10:35:30.241Z,78.46
2018-12-16T10:38:36.126Z,78.30
2018-12-16T10:41:41.761Z,78.41
2018-12-16T10:44:47.896Z,78.29
2018-12-16T10:47:53.891Z,77.77
2018-12-16T10:51:01.211Z,77.72
2018-12-16T10:54:07.197Z,79.53
2018-12-16T10:57:13.287Z,78.06
2018-12-16T11:00:24.562Z,78.72
2018-12-16T11:03:30.518Z,78.35
2018-12-16T11:06:36.445Z,78.43
2018-12-16T11:09:43.290Z,78.22
2018-12-16T11:12:49.985Z,77.62
2018-12-16T11:15:55.599Z,78.33
2018-12-16T11:19:01.453Z,78.60
2018-12-16T11:22:07.376Z,79.53
2018-12-16T11:25:16.255Z,79.30
2018-12-16T11:28:22.154Z,77.59
2018-12-16T11:31:28.175Z,77.26
2018-12-16T11:34:34.085Z,77.76
2018-12-16T11:37:40.446Z,77.94
2018-12-16T11:40:47.142Z,78.14
2018-12-16T11:43:53.107Z,79.28
2018-12-16T11:46:59.189Z,78.40
2018-12-16T11:50:06.421Z,78.45
2018-12-16T11:53:12.408Z,78.34
2018-12-16T11:56:18.448Z,79.48
2018-12-16T11:59:24.530Z,78.72
2018-12-16T12:02:32.937Z,77.97
2018-12-16T12:05:40.546Z,78.18
2018-12-16T12:08:46.577Z,78.27
2018-12-16T12:11:52.635Z,78.35
2018-12-16T12:14:58.656Z,77.76
2018-12-16T12:18:04.304Z,77.72
2018-12-16T12:21:09.945Z,78.00
2018-12-16T12:24:15.576Z,77.26
2018-12-16T12:27:21.515Z,77.02
2018-12-16T12:30:27.528Z,76.76
2018-12-16T12:33:33.781Z,76.54
2018-12-16T12:36:39.942Z,76.96
2018-12-16T12:39:45.781Z,77.10
2018-12-16T12:42:51.674Z,77.80
2018-12-16T12:45:57.695Z,76.53
2018-12-16T12:49:04.109Z,76.16
2018-12-16T12:52:10.078Z,76.90
2018-12-16T12:55:16.033Z,77.25
2018-12-16T12:58:22.742Z,76.81
2018-12-16T13:01:28.628Z,75.99
2018-12-16T13:04:35.001Z,75.79
2018-12-16T13:07:41.274Z,75.24
2018-12-16T13:10:47.129Z,76.02
2018-12-16T13:13:52.804Z,75.82
2018-12-16T13:16:58.457Z,76.98
2018-12-16T13:20:05.056Z,76.80
2018-12-16T13:23:11.020Z,76.21
2018-12-16T13:26:16.717Z,76.03
2018-12-16T13:29:22.692Z,76.45
2018-12-16T13:32:28.666Z,74.49
2018-12-16T13:35:34.599Z,75.37
2018-12-16T13:38:40.600Z,76.04
2018-12-16T13:41:46.826Z,77.58
2018-12-16T13:44:52.700Z,76.75
2018-12-16T13:47:58.607Z,77.03
2018-12-16T13:51:04.971Z,76.91
2018-12-16T13:54:10.894Z,76.60
2018-12-16T13:57:16.818Z,77.42
2018-12-16T14:00:23.229Z,77.80
2018-12-16T14:03:29.196Z,77.07
2018-12-16T14:06:35.569Z,75.92
2018-12-16T14:09:41.472Z,76.51
2018-12-16T14:12:48.032Z,76.37
2018-12-16T14:15:53.623Z,75.86
2018-12-16T14:18:59.331Z,77.57
2018-12-16T14:22:05.210Z,80.53
2018-12-16T14:25:11.653Z,81.73
2018-12-16T14:28:17.561Z,84.22
2018-12-16T14:31:24.046Z,87.21
2018-12-16T14:34:30.012Z,87.87
2018-12-16T14:37:36.882Z,87.95
2018-12-16T14:40:42.730Z,89.59
2018-12-16T14:43:48.498Z,90.63
2018-12-16T14:46:54.183Z,90.57
2018-12-16T14:50:00.248Z,90.21
2018-12-16T14:53:06.136Z,89.02
2018-12-16T14:56:12.052Z,88.79
2018-12-16T14:59:17.930Z,89.96
2018-12-16T15:02:23.844Z,90.41
2018-12-16T15:05:29.491Z,86.99
2018-12-16T15:08:36.299Z,90.53
2018-12-16T15:11:42.627Z,90.37
2018-12-16T15:14:48.972Z,88.89
2018-12-16T15:17:54.851Z,88.20
2018-12-16T15:21:00.459Z,87.90
2018-12-16T15:24:06.523Z,87.76
2018-12-16T15:27:12.548Z,87.78
2018-12-16T15:30:18.484Z,89.77
2018-12-16T15:33:24.585Z,88.60
2018-12-16T15:36:30.170Z,89.11
2018-12-16T15:39:35.799Z,88.66
2018-12-16T15:42:41.420Z,89.71
2018-12-16T15:45:47.661Z,88.97
2018-12-16T15:48:53.573Z,90.85
2018-12-16T15:51:59.535Z,90.54
2018-12-16T15:55:09.233Z,89.73
2018-12-16T15:58:15.924Z,91.02
2018-12-16T16:01:22.967Z,90.89
2018-12-16T16:04:28.636Z,89.69
2018-12-16T16:07:35.080Z,90.41
2018-12-16T16:10:41.004Z,89.47
2018-12-16T16:13:48.092Z,89.99
2018-12-16T16:16:54.045Z,88.99
2018-12-16T16:19:59.918Z,88.51
2018-12-16T16:23:06.866Z,89.20
2018-12-16T16:26:16.368Z,88.64
2018-12-16T16:29:21.400Z,88.34
2018-12-16T16:32:27.345Z,87.45
2018-12-16T16:35:33.080Z,87.32
2018-12-16T16:38:38.658Z,85.87
2018-12-16T16:41:44.418Z,86.46
2018-12-16T16:44:50.395Z,84.86
2018-12-16T16:47:56.324Z,85.96
2018-12-16T16:51:02.243Z,84.57
2018-12-16T16:54:08.172Z,84.41
2018-12-16T16:57:13.885Z,85.48
2018-12-16T17:00:19.776Z,85.60
2018-12-16T17:03:25.351Z,84.57
2018-12-16T17:06:31.398Z,85.15
2018-12-16T17:09:37.066Z,83.88
2018-12-16T17:12:42.749Z,83.95
2018-12-16T17:15:49.543Z,85.20
2018-12-16T17:18:57.543Z,84.41
2018-12-16T17:22:05.155Z,84.18
2018-12-16T17:25:12.125Z,84.60
2018-12-16T17:28:19.233Z,84.09
2018-12-16T17:31:25.215Z,84.23
2018-12-16T17:34:32.396Z,84.39
2018-12-16T17:37:38.305Z,84.54
2018-12-16T17:40:45.029Z,84.80
2018-12-16T17:43:50.954Z,85.39
2018-12-16T17:46:56.702Z,85.02
2018-12-16T17:50:02.358Z,84.69
2018-12-16T17:53:08.314Z,84.96
2018-12-16T17:56:14.451Z,85.22
2018-12-16T17:59:20.671Z,85.29
2018-12-16T18:02:26.488Z,84.74
2018-12-16T18:05:32.357Z,85.14
2018-12-16T18:08:38.023Z,84.30
2018-12-16T18:11:45.791Z,86.00
2018-12-16T18:14:52.298Z,85.97
2018-12-16T18:18:02.061Z,86.94
2018-12-16T18:21:07.803Z,85.94
2018-12-16T18:24:13.855Z,85.62
2018-12-16T18:27:19.606Z,85.80
2018-12-16T18:30:25.237Z,85.85
2018-12-16T18:33:32.148Z,86.54
2018-12-16T18:36:38.503Z,86.31
2018-12-16T18:39:44.357Z,85.98
2018-12-16T18:42:50.213Z,87.25
2018-12-16T18:45:56.442Z,86.34
2018-12-16T18:49:02.345Z,85.44
2018-12-16T18:52:08.253Z,86.29
2018-12-16T18:55:14.023Z,85.47
2018-12-16T18:58:19.720Z,86.82
2018-12-16T19:01:25.574Z,86.83
2018-12-16T19:04:31.235Z,86.87
2018-12-16T19:07:36.882Z,87.39
2018-12-16T19:10:43.935Z,87.58
2018-12-16T19:13:50.256Z,87.12
2018-12-16T19:16:56.180Z,87.32
2018-12-16T19:20:02.408Z,87.31
2018-12-16T19:23:08.077Z,87.95
2018-12-16T19:26:13.740Z,88.49
2018-12-16T19:29:20.403Z,87.53
2018-12-16T19:32:26.001Z,87.79
2018-12-16T19:35:32.942Z,87.65
2018-12-16T19:38:39.508Z,87.28
2018-12-16T19:41:49.942Z,85.81
2018-12-16T19:44:57.269Z,87.27
2018-12-16T19:48:04.583Z,88.24
2018-12-16T19:51:10.731Z,87.38
2018-12-16T19:54:16.982Z,87.16
2018-12-16T19:57:22.925Z,86.48
2018-12-16T20:00:28.840Z,86.41
2018-12-16T20:03:37.234Z,86.55
2018-12-16T20:06:48.068Z,86.45
2018-12-16T20:09:54.149Z,86.68
2018-12-16T20:13:00.042Z,87.28
2018-12-16T20:16:06.835Z,87.17
2018-12-16T20:19:13.937Z,86.90
2018-12-16T20:22:20.229Z,86.74
2018-12-16T20:25:26.145Z,88.07
2018-12-16T20:28:31.744Z,87.93
2018-12-16T20:31:37.396Z,88.05
2018-12-16T20:34:44.554Z,87.36
2018-12-16T20:37:51.264Z,87.25
2018-12-16T20:40:57.165Z,87.20
2018-12-16T20:44:03.545Z,88.23
2018-12-16T20:47:09.184Z,87.16
2018-12-16T20:50:15.154Z,86.91
2018-12-16T20:53:21.239Z,88.38
2018-12-16T20:56:27.456Z,87.82
2018-12-16T20:59:33.336Z,87.37
2018-12-16T21:02:39.409Z,87.94
2018-12-16T21:05:45.523Z,87.99
2018-12-16T21:08:52.434Z,88.06
2018-12-16T21:12:02.203Z,87.95
2018-12-16T21:15:14.165Z,87.67
2018-12-16T21:18:23.828Z,88.25
2018-12-16T21:21:29.540Z,87.67
2018-12-16T21:24:35.376Z,87.27
2018-12-16T21:27:41.049Z,87.40
2018-12-16T21:30:46.736Z,87.20
2018-12-16T21:33:52.797Z,87.67
2018-12-16T21:36:58.383Z,88.40
2018-12-16T21:40:05.077Z,88.47
2018-12-16T21:43:11.604Z,88.28
2018-12-16T21:46:17.511Z,87.35
2018-12-16T21:49:23.525Z,87.52
2018-12-16T21:52:29.263Z,88.36
2018-12-16T21:55:35.481Z,88.08
2018-12-16T21:58:41.386Z,87.96
2018-12-16T22:01:47.326Z,88.31
2018-12-16T22:04:53.249Z,88.30
2018-12-16T22:07:59.603Z,88.54
2018-12-16T22:11:05.517Z,88.76
2018-12-16T22:14:11.407Z,88.38
2018-12-16T22:17:17.327Z,88.60
2018-12-16T22:20:23.212Z,88.51
2018-12-16T22:23:29.113Z,88.41
2018-12-16T22:26:35.482Z,87.98
2018-12-16T22:29:41.409Z,88.93
2018-12-16T22:32:47.394Z,89.44
2018-12-16T22:35:53.015Z,88.39
2018-12-16T22:38:58.608Z,88.52
2018-12-16T22:42:04.544Z,88.99
2018-12-16T22:48:15.949Z,89.01
2018-12-16T22:51:21.814Z,88.87
2018-12-16T22:54:27.758Z,89.17
2018-12-16T22:57:33.353Z,88.99
2018-12-16T23:00:45.447Z,89.59
2018-12-16T23:03:51.349Z,89.62
2018-12-16T23:06:57.292Z,89.25
2018-12-16T23:10:03.179Z,89.23
2018-12-16T23:13:09.642Z,89.32
2018-12-16T23:16:16.916Z,89.11
2018-12-16T23:19:22.567Z,89.03
2018-12-16T23:22:28.558Z,89.35
2018-12-16T23:25:34.234Z,89.83
2018-12-16T23:28:41.318Z,90.19
2018-12-16T23:34:06.629Z,89.83
2018-12-16T23:37:12.507Z,90.07
2018-12-16T23:40:18.403Z,89.98
2018-12-16T23:43:24.009Z,89.44
2018-12-16T23:46:30.445Z,89.89
2018-12-16T23:49:36.335Z,89.63
2018-12-16T23:52:42.385Z,90.15
2018-12-16T23:55:48.716Z,90.26
2018-12-16T23:58:54.722Z,90.17
